createdAt,value
2022-11-20T00:00:17.994Z,12.30
2022-11-20T00:00:39.544Z,12.23
2022-11-20T00:01:05.653Z,12.25
2022-11-20T00:01:27.790Z,12.29
2022-11-20T00:01:50.483Z,12.30
2022-11-20T00:02:12.151Z,12.30
2022-11-20T00:02:33.762Z,12.30
2022-11-20T00:02:55.473Z,12.31
2022-11-20T00:03:18.097Z,12.29
2022-11-20T00:03:41.055Z,12.34
2022-11-20T00:04:02.630Z,12.33
2022-11-20T00:04:24.268Z,12.36
2022-11-20T00:04:45.971Z,12.34
2022-11-20T00:05:10.020Z,12.34
2022-11-20T00:05:33.382Z,12.24
2022-11-20T00:05:54.985Z,12.25
2022-11-20T00:06:18.520Z,12.15
2022-11-20T00:06:41.062Z,12.20
2022-11-20T00:07:02.661Z,12.15
2022-11-20T00:07:25.628Z,12.13
2022-11-20T00:07:47.808Z,12.17
2022-11-20T00:08:10.346Z,12.15
2022-11-20T00:08:32.150Z,12.20
2022-11-20T00:08:55.951Z,12.14
2022-11-20T00:09:18.877Z,12.21
2022-11-20T00:09:40.690Z,12.21
2022-11-20T00:10:02.664Z,12.21
2022-11-20T00:10:24.298Z,12.22
2022-11-20T00:10:45.869Z,12.22
2022-11-20T00:11:15.283Z,12.22
2022-11-20T00:11:37.598Z,12.21
2022-11-20T00:11:59.121Z,12.22
2022-11-20T00:12:21.725Z,12.24
2022-11-20T00:12:43.258Z,12.25
2022-11-20T00:13:05.318Z,12.24
2022-11-20T00:13:26.910Z,12.24
2022-11-20T00:13:51.538Z,12.22
2022-11-20T00:14:13.122Z,12.24
2022-11-20T00:14:34.771Z,12.21
2022-11-20T00:14:56.440Z,12.21
2022-11-20T00:15:19.046Z,12.21
2022-11-20T00:15:40.588Z,12.20
2022-11-20T00:16:04.605Z,12.19
2022-11-20T00:16:28.513Z,12.10
2022-11-20T00:16:51.057Z,12.16
2022-11-20T00:17:12.598Z,12.17
2022-11-20T00:17:34.265Z,12.18
2022-11-20T00:17:55.858Z,12.18
2022-11-20T00:18:17.447Z,12.15
2022-11-20T00:18:40.037Z,12.18
2022-11-20T00:19:02.176Z,12.16
2022-11-20T00:19:23.845Z,12.17
2022-11-20T00:19:45.445Z,12.16
2022-11-20T00:20:08.807Z,12.14
2022-11-20T00:20:31.031Z,12.11
2022-11-20T00:20:52.707Z,12.14
2022-11-20T00:21:16.048Z,12.16
2022-11-20T00:21:38.662Z,12.18
2022-11-20T00:22:00.291Z,12.08
2022-11-20T00:22:21.895Z,12.12
2022-11-20T00:22:45.758Z,12.06
2022-11-20T00:23:07.955Z,12.07
2022-11-20T00:23:29.585Z,12.10
2022-11-20T00:23:54.923Z,12.09
2022-11-20T00:24:17.794Z,12.09
2022-11-20T00:24:42.991Z,12.09
2022-11-20T00:25:05.709Z,12.10
2022-11-20T00:25:27.347Z,12.08
2022-11-20T00:25:49.107Z,12.09
2022-11-20T00:26:13.463Z,12.04
2022-11-20T00:26:35.034Z,11.99
2022-11-20T00:26:56.590Z,11.96
2022-11-20T00:27:19.154Z,11.99
2022-11-20T00:27:40.739Z,12.01
2022-11-20T00:28:02.351Z,12.00
2022-11-20T00:28:23.938Z,12.02
2022-11-20T00:28:51.559Z,11.83
2022-11-20T00:29:13.247Z,11.99
2022-11-20T00:29:34.855Z,12.02
2022-11-20T00:29:56.694Z,12.04
2022-11-20T00:30:19.804Z,12.04
2022-11-20T00:30:41.461Z,11.99
2022-11-20T00:31:04.248Z,11.98
2022-11-20T00:31:26.156Z,12.01
2022-11-20T00:31:48.690Z,12.05
2022-11-20T00:32:10.399Z,12.05
2022-11-20T00:32:32.054Z,12.04
2022-11-20T00:32:53.618Z,12.05
2022-11-20T00:33:15.197Z,11.99
2022-11-20T00:33:38.409Z,11.98
2022-11-20T00:33:59.979Z,12.00
2022-11-20T00:34:21.547Z,11.97
2022-11-20T00:34:43.081Z,12.06
2022-11-20T00:35:06.356Z,12.05
2022-11-20T00:35:27.952Z,12.03
2022-11-20T00:35:49.671Z,12.04
2022-11-20T00:36:13.719Z,12.07
2022-11-20T00:36:35.342Z,12.09
2022-11-20T00:36:57.943Z,12.08
2022-11-20T00:37:19.564Z,12.07
2022-11-20T00:37:41.118Z,12.02
2022-11-20T00:38:04.055Z,12.08
2022-11-20T00:38:25.711Z,12.10
2022-11-20T00:38:48.686Z,12.11
2022-11-20T00:39:10.286Z,12.14
2022-11-20T00:39:31.828Z,12.13
2022-11-20T00:39:53.462Z,12.14
2022-11-20T00:40:16.108Z,12.14
2022-11-20T00:40:37.700Z,12.11
2022-11-20T00:41:00.382Z,12.15
2022-11-20T00:41:23.611Z,12.16
2022-11-20T00:41:45.404Z,12.19
2022-11-20T00:42:06.992Z,12.19
2022-11-20T00:42:28.592Z,12.17
2022-11-20T00:42:51.151Z,12.20
2022-11-20T00:43:12.707Z,12.14
2022-11-20T00:43:34.442Z,12.22
2022-11-20T00:43:57.205Z,12.23
2022-11-20T00:44:18.819Z,12.23
2022-11-20T00:44:41.516Z,12.20
2022-11-20T00:45:03.362Z,12.20
2022-11-20T00:45:24.985Z,12.23
2022-11-20T00:45:46.528Z,12.23
2022-11-20T00:46:11.398Z,12.21
2022-11-20T00:46:33.237Z,12.26
2022-11-20T00:46:54.818Z,12.28
2022-11-20T00:47:16.430Z,12.29
2022-11-20T00:47:38.972Z,12.29
2022-11-20T00:48:00.550Z,12.31
2022-11-20T00:48:22.299Z,12.30
2022-11-20T00:48:44.522Z,12.30
2022-11-20T00:49:07.051Z,12.32
2022-11-20T00:49:28.618Z,12.33
2022-11-20T00:49:50.184Z,12.32
2022-11-20T00:50:11.903Z,12.33
2022-11-20T00:50:34.496Z,12.32
2022-11-20T00:50:56.657Z,12.26
2022-11-20T00:51:20.723Z,12.35
2022-11-20T00:51:42.366Z,12.36
2022-11-20T00:52:05.038Z,12.25
2022-11-20T00:52:26.588Z,12.24
2022-11-20T00:52:48.123Z,12.23
2022-11-20T00:53:11.031Z,12.27
2022-11-20T00:53:33.643Z,12.30
2022-11-20T00:53:56.842Z,12.27
2022-11-20T00:54:18.396Z,12.32
2022-11-20T00:54:39.947Z,12.18
2022-11-20T00:55:02.726Z,12.22
2022-11-20T00:55:24.286Z,12.21
2022-11-20T00:55:53.702Z,12.23
2022-11-20T00:56:17.491Z,12.22
2022-11-20T00:56:41.008Z,12.21
2022-11-20T00:57:02.621Z,12.24
2022-11-20T00:57:24.309Z,12.26
2022-11-20T00:57:45.897Z,12.27
2022-11-20T00:58:13.007Z,12.29
2022-11-20T00:58:38.369Z,12.26
2022-11-20T00:59:01.780Z,12.22
2022-11-20T00:59:24.004Z,12.24
2022-11-20T00:59:45.658Z,12.23
2022-11-20T01:00:09.213Z,12.24
2022-11-20T01:00:30.865Z,12.25
2022-11-20T01:00:52.635Z,12.20
2022-11-20T01:01:17.179Z,12.22
2022-11-20T01:01:39.363Z,12.25
2022-11-20T01:02:01.969Z,12.26
2022-11-20T01:02:23.573Z,12.21
2022-11-20T01:02:45.214Z,12.06
2022-11-20T01:03:06.858Z,12.05
2022-11-20T01:03:29.114Z,12.06
2022-11-20T01:03:52.887Z,12.08
2022-11-20T01:04:14.524Z,12.09
2022-11-20T01:04:36.083Z,12.09
2022-11-20T01:04:57.677Z,12.04
2022-11-20T01:05:19.242Z,12.02
2022-11-20T01:05:41.809Z,12.05
2022-11-20T01:06:04.820Z,12.03
2022-11-20T01:06:29.557Z,12.07
2022-11-20T01:06:52.129Z,12.07
2022-11-20T01:07:13.777Z,12.10
2022-11-20T01:07:35.377Z,12.13
2022-11-20T01:07:56.938Z,12.12
2022-11-20T01:08:19.823Z,12.11
2022-11-20T01:08:42.932Z,12.15
2022-11-20T01:09:07.167Z,12.16
2022-11-20T01:09:28.803Z,12.20
2022-11-20T01:09:50.367Z,12.18
2022-11-20T01:10:13.278Z,12.19
2022-11-20T01:10:34.886Z,12.21
2022-11-20T01:11:00.185Z,12.17
2022-11-20T01:11:23.410Z,12.23
2022-11-20T01:11:47.214Z,12.23
2022-11-20T01:12:08.827Z,12.17
2022-11-20T01:12:30.437Z,12.21
2022-11-20T01:13:12.147Z,12.18
2022-11-20T01:14:18.745Z,12.20
2022-11-20T01:14:40.340Z,12.21
2022-11-20T01:15:02.014Z,12.24
2022-11-20T01:15:23.589Z,12.21
2022-11-20T01:15:45.184Z,12.21
2022-11-20T01:16:10.147Z,12.23
2022-11-20T01:16:33.675Z,12.21
2022-11-20T01:16:55.218Z,12.19
2022-11-20T01:17:16.808Z,12.17
2022-11-20T01:17:38.490Z,12.15
2022-11-20T01:18:01.091Z,12.02
2022-11-20T01:18:22.757Z,12.05
2022-11-20T01:18:46.650Z,12.02
2022-11-20T01:19:12.899Z,12.09
2022-11-20T01:19:37.421Z,12.13
2022-11-20T01:19:59.033Z,12.11
2022-11-20T01:20:20.653Z,12.11
2022-11-20T01:20:42.233Z,12.16
2022-11-20T01:21:06.963Z,12.07
2022-11-20T01:21:30.850Z,12.20
2022-11-20T01:21:54.554Z,12.21
2022-11-20T01:22:17.195Z,12.25
2022-11-20T01:22:38.801Z,12.24
2022-11-20T01:23:00.425Z,12.24
2022-11-20T01:23:23.411Z,12.24
2022-11-20T01:23:45.677Z,12.24
2022-11-20T01:24:10.720Z,12.18
2022-11-20T01:24:32.552Z,12.21
2022-11-20T01:24:54.092Z,12.24
2022-11-20T01:25:15.833Z,12.25
2022-11-20T01:25:37.491Z,12.27
2022-11-20T01:26:01.118Z,12.27
2022-11-20T01:26:27.285Z,12.30
2022-11-20T01:26:51.136Z,12.29
2022-11-20T01:27:12.791Z,12.26
2022-11-20T01:27:35.348Z,12.24
2022-11-20T01:27:56.916Z,12.25
2022-11-20T01:28:18.486Z,12.26
2022-11-20T01:28:41.202Z,12.28
2022-11-20T01:29:05.112Z,12.29
2022-11-20T01:29:26.692Z,12.31
2022-11-20T01:29:48.258Z,12.30
2022-11-20T01:30:10.835Z,12.32
2022-11-20T01:30:32.440Z,12.31
2022-11-20T01:30:54.034Z,12.31
2022-11-20T01:31:18.385Z,12.30
2022-11-20T01:31:40.013Z,12.28
2022-11-20T01:32:01.627Z,12.26
2022-11-20T01:32:23.195Z,12.27
2022-11-20T01:32:45.050Z,12.27
2022-11-20T01:33:07.632Z,12.27
2022-11-20T01:33:29.282Z,12.30
2022-11-20T01:33:52.624Z,12.30
2022-11-20T01:34:16.721Z,12.31
2022-11-20T01:34:39.238Z,12.28
2022-11-20T01:35:00.840Z,12.24
2022-11-20T01:35:22.454Z,12.29
2022-11-20T01:35:44.125Z,12.27
2022-11-20T01:36:07.080Z,12.23
2022-11-20T01:36:32.649Z,12.27
2022-11-20T01:36:54.614Z,12.25
2022-11-20T01:37:16.223Z,12.24
2022-11-20T01:37:37.766Z,12.26
2022-11-20T01:38:00.271Z,12.31
2022-11-20T01:38:23.556Z,12.30
2022-11-20T01:38:45.371Z,12.30
2022-11-20T01:39:10.889Z,12.30
2022-11-20T01:39:33.445Z,12.32
2022-11-20T01:39:54.984Z,12.31
2022-11-20T01:40:16.636Z,12.33
2022-11-20T01:40:38.282Z,12.34
2022-11-20T01:40:59.947Z,12.33
2022-11-20T01:41:41.533Z,12.34
2022-11-20T01:42:21.798Z,12.33
2022-11-20T01:43:04.790Z,12.33
2022-11-20T01:43:29.355Z,12.31
2022-11-20T01:43:50.898Z,12.31
2022-11-20T01:44:15.887Z,12.34
2022-11-20T01:44:55.694Z,12.33
2022-11-20T01:45:57.967Z,12.31
2022-11-20T01:46:20.376Z,12.34
2022-11-20T01:46:51.721Z,12.31
2022-11-20T01:47:17.429Z,12.29
2022-11-20T01:47:44.542Z,12.27
2022-11-20T01:48:06.658Z,12.29
2022-11-20T01:48:34.719Z,12.27
2022-11-20T01:49:01.679Z,12.25
2022-11-20T01:49:28.915Z,12.24
2022-11-20T01:49:57.129Z,12.24
2022-11-20T01:50:24.852Z,12.26
2022-11-20T01:50:46.954Z,12.28
2022-11-20T01:51:18.730Z,12.27
2022-11-20T01:51:43.325Z,12.29
2022-11-20T01:52:08.483Z,12.27
2022-11-20T01:52:36.769Z,12.29
2022-11-20T01:53:02.965Z,12.31
2022-11-20T01:53:30.273Z,12.30
2022-11-20T01:53:55.143Z,12.33
2022-11-20T01:54:23.512Z,12.32
2022-11-20T01:54:49.805Z,12.32
2022-11-20T01:55:15.889Z,12.32
2022-11-20T01:55:40.825Z,12.34
2022-11-20T01:56:07.787Z,12.34
2022-11-20T01:56:32.393Z,12.35
2022-11-20T01:56:58.429Z,12.33
2022-11-20T01:57:21.427Z,12.33
2022-11-20T01:57:46.357Z,12.30
2022-11-20T01:58:08.348Z,12.28
2022-11-20T01:58:33.898Z,12.32
2022-11-20T01:58:59.499Z,12.27
2022-11-20T01:59:26.264Z,12.34
2022-11-20T01:59:55.518Z,12.31
2022-11-20T02:00:20.079Z,12.26
2022-11-20T02:00:41.743Z,12.28
2022-11-20T02:01:05.789Z,12.26
2022-11-20T02:01:27.456Z,12.26
2022-11-20T02:01:49.192Z,12.27
2022-11-20T02:02:11.812Z,12.24
2022-11-20T02:02:33.848Z,12.23
2022-11-20T02:02:59.442Z,12.18
2022-11-20T02:03:21.252Z,12.25
2022-11-20T02:03:43.817Z,12.23
2022-11-20T02:04:07.435Z,12.21
2022-11-20T02:04:29.159Z,12.23
2022-11-20T02:04:55.199Z,12.23
2022-11-20T02:05:23.702Z,12.23
2022-11-20T02:05:52.466Z,12.24
2022-11-20T02:06:20.203Z,12.23
2022-11-20T02:06:45.651Z,12.25
2022-11-20T02:07:07.485Z,12.26
2022-11-20T02:07:29.664Z,12.26
2022-11-20T02:07:52.796Z,12.24
2022-11-20T02:08:14.918Z,12.22
2022-11-20T02:08:38.910Z,12.20
2022-11-20T02:09:00.512Z,12.18
2022-11-20T02:09:23.580Z,12.21
2022-11-20T02:09:45.285Z,12.22
2022-11-20T02:10:07.455Z,12.22
2022-11-20T02:10:30.097Z,12.22
2022-11-20T02:10:52.780Z,12.22
2022-11-20T02:11:14.840Z,12.22
2022-11-20T02:11:36.482Z,12.23
2022-11-20T02:11:59.062Z,12.24
2022-11-20T02:12:41.381Z,12.23
2022-11-20T02:13:21.744Z,12.22
2022-11-20T02:13:47.219Z,12.22
2022-11-20T02:14:09.651Z,12.19
2022-11-20T02:14:31.376Z,12.19
2022-11-20T02:14:52.998Z,12.18
2022-11-20T02:15:14.623Z,12.18
2022-11-20T02:15:36.323Z,12.15
2022-11-20T02:15:58.175Z,12.22
2022-11-20T02:16:25.146Z,12.20
2022-11-20T02:16:48.092Z,12.19
2022-11-20T02:17:09.698Z,12.18
2022-11-20T02:17:32.450Z,12.18
2022-11-20T02:17:54.565Z,12.19
2022-11-20T02:18:19.625Z,12.21
2022-11-20T02:18:41.948Z,12.23
2022-11-20T02:19:08.217Z,12.20
2022-11-20T02:19:32.083Z,12.21
2022-11-20T02:19:54.717Z,12.21
2022-11-20T02:20:16.636Z,12.22
2022-11-20T02:20:39.379Z,12.24
2022-11-20T02:21:08.574Z,12.19
2022-11-20T02:21:38.075Z,12.20
2022-11-20T02:22:06.632Z,12.17
2022-11-20T02:22:33.179Z,12.21
2022-11-20T02:22:58.691Z,12.20
2022-11-20T02:23:29.098Z,12.15
2022-11-20T02:24:01.991Z,12.09
2022-11-20T02:24:24.895Z,12.16
2022-11-20T02:24:48.612Z,12.13
2022-11-20T02:25:11.447Z,12.14
2022-11-20T02:25:36.010Z,12.12
2022-11-20T02:26:00.339Z,12.11
2022-11-20T02:26:24.102Z,12.09
2022-11-20T02:26:50.583Z,12.05
2022-11-20T02:27:14.941Z,12.08
2022-11-20T02:27:38.259Z,12.05
2022-11-20T02:27:59.864Z,12.01
2022-11-20T02:28:21.786Z,12.04
2022-11-20T02:28:44.502Z,12.05
2022-11-20T02:29:06.302Z,12.07
2022-11-20T02:29:34.841Z,12.07
2022-11-20T02:30:00.742Z,12.00
2022-11-20T02:30:22.422Z,12.00
2022-11-20T02:30:44.130Z,11.95
2022-11-20T02:31:06.726Z,12.03
2022-11-20T02:31:28.395Z,12.01
2022-11-20T02:31:50.003Z,12.01
2022-11-20T02:32:19.585Z,11.96
2022-11-20T02:32:41.543Z,11.90
2022-11-20T02:33:04.376Z,11.90
2022-11-20T02:33:26.000Z,11.89
2022-11-20T02:33:47.546Z,11.90
2022-11-20T02:34:09.719Z,11.91
2022-11-20T02:34:32.298Z,11.91
2022-11-20T02:34:54.103Z,11.89
2022-11-20T02:35:46.252Z,11.84
2022-11-20T02:36:13.554Z,11.92
2022-11-20T02:36:37.694Z,11.89
2022-11-20T02:37:00.568Z,11.92
2022-11-20T02:37:23.762Z,11.89
2022-11-20T02:37:47.476Z,11.78
2022-11-20T02:38:09.566Z,11.68
2022-11-20T02:38:31.195Z,11.60
2022-11-20T02:38:53.075Z,11.62
2022-11-20T02:39:18.836Z,11.61
2022-11-20T02:39:41.303Z,11.57
2022-11-20T02:40:03.192Z,11.58
2022-11-20T02:40:25.145Z,11.60
2022-11-20T02:40:50.272Z,11.65
2022-11-20T02:41:15.332Z,11.64
2022-11-20T02:41:38.528Z,11.65
2022-11-20T02:42:02.050Z,11.67
2022-11-20T02:42:23.575Z,11.67
2022-11-20T02:42:46.119Z,11.69
2022-11-20T02:43:08.449Z,11.67
2022-11-20T02:43:30.009Z,11.75
2022-11-20T02:43:51.597Z,11.76
2022-11-20T02:44:14.454Z,11.79
2022-11-20T02:44:36.041Z,11.84
2022-11-20T02:44:57.686Z,11.82
2022-11-20T02:45:19.448Z,11.87
2022-11-20T02:45:42.013Z,11.87
2022-11-20T02:46:03.613Z,11.90
2022-11-20T02:46:25.526Z,11.91
2022-11-20T02:46:47.143Z,11.87
2022-11-20T02:47:09.773Z,11.92
2022-11-20T02:47:31.688Z,11.95
2022-11-20T02:47:53.757Z,11.97
2022-11-20T02:48:15.326Z,12.00
2022-11-20T02:48:37.916Z,12.02
2022-11-20T02:48:59.699Z,12.03
2022-11-20T02:49:21.716Z,12.01
2022-11-20T02:49:43.492Z,12.03
2022-11-20T02:50:06.545Z,12.02
2022-11-20T02:50:29.163Z,12.05
2022-11-20T02:50:50.803Z,12.00
2022-11-20T02:51:12.353Z,12.06
2022-11-20T02:51:34.957Z,12.05
2022-11-20T02:51:56.593Z,12.07
2022-11-20T02:52:18.205Z,12.08
2022-11-20T02:52:39.759Z,12.09
2022-11-20T02:53:01.385Z,12.09
2022-11-20T02:53:23.933Z,12.11
2022-11-20T02:53:45.454Z,12.12
2022-11-20T02:54:07.026Z,12.07
2022-11-20T02:54:30.098Z,12.11
2022-11-20T02:54:52.851Z,12.07
2022-11-20T02:55:14.439Z,12.06
2022-11-20T02:55:37.145Z,12.04
2022-11-20T02:55:58.744Z,12.02
2022-11-20T02:56:20.899Z,11.97
2022-11-20T02:56:43.597Z,11.94
2022-11-20T02:57:05.216Z,11.90
2022-11-20T02:57:26.845Z,11.88
2022-11-20T02:57:48.460Z,11.87
2022-11-20T02:58:11.043Z,11.86
2022-11-20T02:58:32.880Z,11.84
2022-11-20T02:58:54.893Z,11.71
2022-11-20T02:59:16.458Z,11.71
2022-11-20T02:59:39.136Z,11.63
2022-11-20T03:00:00.754Z,11.59
2022-11-20T03:00:22.603Z,11.56
2022-11-20T03:00:44.167Z,11.56
2022-11-20T03:01:05.771Z,11.55
2022-11-20T03:01:28.460Z,11.52
2022-11-20T03:01:50.183Z,11.57
2022-11-20T03:02:11.878Z,11.60
2022-11-20T03:02:33.975Z,11.62
2022-11-20T03:02:56.539Z,11.63
2022-11-20T03:03:18.161Z,11.62
2022-11-20T03:03:39.750Z,11.65
2022-11-20T03:04:01.453Z,11.63
2022-11-20T03:04:23.963Z,11.65
2022-11-20T03:04:45.602Z,11.67
2022-11-20T03:05:07.580Z,11.68
2022-11-20T03:05:29.150Z,11.72
2022-11-20T03:05:50.868Z,11.69
2022-11-20T03:06:13.431Z,11.65
2022-11-20T03:06:35.770Z,11.60
2022-11-20T03:06:57.590Z,11.65
2022-11-20T03:07:19.279Z,11.65
2022-11-20T03:07:41.000Z,11.60
2022-11-20T03:08:03.738Z,11.59
2022-11-20T03:08:25.325Z,11.56
2022-11-20T03:08:46.904Z,11.57
2022-11-20T03:09:08.613Z,11.56
2022-11-20T03:09:32.806Z,11.57
2022-11-20T03:09:54.422Z,11.52
2022-11-20T03:10:16.216Z,11.43
2022-11-20T03:10:38.037Z,11.34
2022-11-20T03:11:04.569Z,11.39
2022-11-20T03:11:26.394Z,11.40
2022-11-20T03:11:48.550Z,11.37
2022-11-20T03:12:10.375Z,11.34
2022-11-20T03:12:32.926Z,11.26
2022-11-20T03:12:55.851Z,11.29
2022-11-20T03:13:17.439Z,11.34
2022-11-20T03:13:39.192Z,11.37
2022-11-20T03:14:04.082Z,11.42
2022-11-20T03:14:25.734Z,11.43
2022-11-20T03:14:52.656Z,11.47
2022-11-20T03:15:14.867Z,11.50
2022-11-20T03:15:37.415Z,11.53
2022-11-20T03:16:00.183Z,11.53
2022-11-20T03:16:23.931Z,11.57
2022-11-20T03:16:45.498Z,11.61
2022-11-20T03:17:07.251Z,11.63
2022-11-20T03:17:30.412Z,11.58
2022-11-20T03:17:54.861Z,11.58
2022-11-20T03:18:16.733Z,11.63
2022-11-20T03:18:38.499Z,11.66
2022-11-20T03:19:01.293Z,11.66
2022-11-20T03:19:23.589Z,11.65
2022-11-20T03:19:45.351Z,11.64
2022-11-20T03:20:08.701Z,11.66
2022-11-20T03:20:30.447Z,11.68
2022-11-20T03:20:59.186Z,11.68
2022-11-20T03:21:20.772Z,11.64
2022-11-20T03:21:42.342Z,11.60
2022-11-20T03:22:04.005Z,11.53
2022-11-20T03:22:26.636Z,11.45
2022-11-20T03:22:48.252Z,11.49
2022-11-20T03:23:09.895Z,11.49
2022-11-20T03:23:32.973Z,11.49
2022-11-20T03:23:55.634Z,11.44
2022-11-20T03:24:18.162Z,11.41
2022-11-20T03:24:41.190Z,11.42
2022-11-20T03:25:03.134Z,11.46
2022-11-20T03:25:25.734Z,11.45
2022-11-20T03:25:47.324Z,11.46
2022-11-20T03:26:15.305Z,11.32
2022-11-20T03:26:37.969Z,11.39
2022-11-20T03:26:59.601Z,11.38
2022-11-20T03:27:21.136Z,11.41
2022-11-20T03:27:42.743Z,11.42
2022-11-20T03:28:04.544Z,11.45
2022-11-20T03:28:27.147Z,11.40
2022-11-20T03:28:50.861Z,11.39
2022-11-20T03:29:12.512Z,11.40
2022-11-20T03:29:35.587Z,11.40
2022-11-20T03:29:58.162Z,11.41
2022-11-20T03:30:19.927Z,11.40
2022-11-20T03:30:41.862Z,11.45
2022-11-20T03:31:07.183Z,11.44
2022-11-20T03:31:31.347Z,11.45
2022-11-20T03:31:52.915Z,11.46
2022-11-20T03:32:14.435Z,11.44
2022-11-20T03:32:36.021Z,11.38
2022-11-20T03:32:57.768Z,11.45
2022-11-20T03:33:20.363Z,11.46
2022-11-20T03:33:43.203Z,11.44
2022-11-20T03:34:05.512Z,11.43
2022-11-20T03:34:27.169Z,11.44
2022-11-20T03:34:49.710Z,11.41
2022-11-20T03:35:11.401Z,11.46
2022-11-20T03:35:33.119Z,11.47
2022-11-20T03:35:54.678Z,11.42
2022-11-20T03:36:19.869Z,11.42
2022-11-20T03:36:43.299Z,11.44
2022-11-20T03:37:04.870Z,11.43
2022-11-20T03:37:26.498Z,11.47
2022-11-20T03:37:48.133Z,11.50
2022-11-20T03:38:10.731Z,11.50
2022-11-20T03:38:33.169Z,11.52
2022-11-20T03:38:56.043Z,11.54
2022-11-20T03:39:18.673Z,11.54
2022-11-20T03:39:41.760Z,11.57
2022-11-20T03:40:03.965Z,11.60
2022-11-20T03:40:25.590Z,11.60
2022-11-20T03:40:48.169Z,11.63
2022-11-20T03:41:12.001Z,11.64
2022-11-20T03:41:38.511Z,11.61
2022-11-20T03:42:00.109Z,11.66
2022-11-20T03:42:40.188Z,11.64
2022-11-20T03:43:02.723Z,11.69
2022-11-20T03:43:24.333Z,11.71
2022-11-20T03:43:48.500Z,11.69
2022-11-20T03:44:12.290Z,11.72
2022-11-20T03:44:34.802Z,11.73
2022-11-20T03:44:56.587Z,11.74
2022-11-20T03:45:19.176Z,11.74
2022-11-20T03:45:40.727Z,11.74
2022-11-20T03:46:02.433Z,11.75
2022-11-20T03:46:25.357Z,11.72
2022-11-20T03:46:47.001Z,11.73
2022-11-20T03:47:08.589Z,11.69
2022-11-20T03:47:30.194Z,11.77
2022-11-20T03:47:52.793Z,11.77
2022-11-20T03:48:14.363Z,11.74
2022-11-20T03:48:35.976Z,11.72
2022-11-20T03:48:58.006Z,11.71
2022-11-20T03:49:20.006Z,11.71
2022-11-20T03:49:41.750Z,11.72
2022-11-20T03:50:04.818Z,11.75
2022-11-20T03:50:26.374Z,11.72
2022-11-20T03:50:48.579Z,11.66
2022-11-20T03:51:11.987Z,11.65
2022-11-20T03:51:36.435Z,11.60
2022-11-20T03:51:58.042Z,11.65
2022-11-20T03:52:19.615Z,11.66
2022-11-20T03:52:41.494Z,11.68
2022-11-20T03:53:03.069Z,11.68
2022-11-20T03:53:25.626Z,11.69
2022-11-20T03:53:48.941Z,11.67
2022-11-20T03:54:10.706Z,11.64
2022-11-20T03:54:32.545Z,11.64
2022-11-20T03:54:56.479Z,11.60
2022-11-20T03:55:18.197Z,11.58
2022-11-20T03:55:39.810Z,11.60
2022-11-20T03:56:01.339Z,11.61
2022-11-20T03:56:26.929Z,11.64
2022-11-20T03:56:48.526Z,11.64
2022-11-20T03:57:10.127Z,11.67
2022-11-20T03:57:31.779Z,11.67
2022-11-20T03:57:54.307Z,11.67
2022-11-20T03:58:15.890Z,11.68
2022-11-20T03:58:40.355Z,11.61
2022-11-20T03:59:03.362Z,11.66
2022-11-20T03:59:24.949Z,11.70
2022-11-20T03:59:46.614Z,11.72
2022-11-20T04:00:09.296Z,11.72
2022-11-20T04:00:30.902Z,11.66
2022-11-20T04:00:53.481Z,11.64
2022-11-20T04:01:17.518Z,11.66
2022-11-20T04:01:39.336Z,11.69
2022-11-20T04:02:00.973Z,11.68
2022-11-20T04:02:23.784Z,11.70
2022-11-20T04:02:45.368Z,11.70
2022-11-20T04:03:07.041Z,11.75
2022-11-20T04:03:28.673Z,11.74
2022-11-20T04:03:53.215Z,11.69
2022-11-20T04:04:14.773Z,11.73
2022-11-20T04:04:36.398Z,11.74
2022-11-20T04:04:58.014Z,11.77
2022-11-20T04:05:20.545Z,11.73
2022-11-20T04:05:42.143Z,11.70
2022-11-20T04:06:05.725Z,11.71
2022-11-20T04:06:28.934Z,11.67
2022-11-20T04:06:51.491Z,11.68
2022-11-20T04:07:13.147Z,11.69
2022-11-20T04:07:35.543Z,11.67
2022-11-20T04:07:57.166Z,11.68
2022-11-20T04:08:18.747Z,11.70
2022-11-20T04:08:42.449Z,11.64
2022-11-20T04:09:04.852Z,11.65
2022-11-20T04:09:26.574Z,11.67
2022-11-20T04:09:48.174Z,11.70
2022-11-20T04:10:12.299Z,11.71
2022-11-20T04:10:33.905Z,11.74
2022-11-20T04:10:55.534Z,11.64
2022-11-20T04:11:19.295Z,11.74
2022-11-20T04:11:42.563Z,11.80
2022-11-20T04:12:04.678Z,11.78
2022-11-20T04:12:26.285Z,11.80
2022-11-20T04:12:47.885Z,11.83
2022-11-20T04:13:10.489Z,11.87
2022-11-20T04:13:32.136Z,11.88
2022-11-20T04:13:55.674Z,11.89
2022-11-20T04:14:17.831Z,11.87
2022-11-20T04:14:40.437Z,11.85
2022-11-20T04:15:02.051Z,11.82
2022-11-20T04:15:23.696Z,11.83
2022-11-20T04:15:45.256Z,11.85
2022-11-20T04:16:09.143Z,11.86
2022-11-20T04:16:34.163Z,11.88
2022-11-20T04:16:55.744Z,11.92
2022-11-20T04:17:17.331Z,11.92
2022-11-20T04:17:39.847Z,11.88
2022-11-20T04:18:01.509Z,11.75
2022-11-20T04:18:23.058Z,11.83
2022-11-20T04:18:45.039Z,11.76
2022-11-20T04:19:10.888Z,11.81
2022-11-20T04:19:32.477Z,11.78
2022-11-20T04:19:54.086Z,11.75
2022-11-20T04:20:15.688Z,11.68
2022-11-20T04:20:38.252Z,11.67
2022-11-20T04:21:00.106Z,11.68
2022-11-20T04:21:22.559Z,11.69
2022-11-20T04:21:45.102Z,11.64
2022-11-20T04:22:07.735Z,11.51
2022-11-20T04:22:29.435Z,11.49
2022-11-20T04:22:54.498Z,11.46
2022-11-20T04:23:16.120Z,11.49
2022-11-20T04:23:37.933Z,11.51
2022-11-20T04:24:00.690Z,11.51
2022-11-20T04:24:22.331Z,11.57
2022-11-20T04:24:43.896Z,11.60
2022-11-20T04:25:06.000Z,11.58
2022-11-20T04:25:29.886Z,11.59
2022-11-20T04:25:51.504Z,11.48
2022-11-20T04:26:13.580Z,11.55
2022-11-20T04:26:35.524Z,11.57
2022-11-20T04:26:58.099Z,11.52
2022-11-20T04:27:19.743Z,11.61
2022-11-20T04:27:41.344Z,11.62
2022-11-20T04:28:02.975Z,11.62
2022-11-20T04:28:25.487Z,11.58
2022-11-20T04:28:47.167Z,11.53
2022-11-20T04:29:11.844Z,11.51
2022-11-20T04:29:33.411Z,11.51
2022-11-20T04:29:54.990Z,11.37
2022-11-20T04:30:17.616Z,11.54
2022-11-20T04:30:39.220Z,11.57
2022-11-20T04:31:05.493Z,11.57
2022-11-20T04:31:29.105Z,11.62
2022-11-20T04:31:51.654Z,11.65
2022-11-20T04:32:13.246Z,11.66
2022-11-20T04:32:34.830Z,11.70
2022-11-20T04:32:56.396Z,11.73
2022-11-20T04:33:17.968Z,11.76
2022-11-20T04:33:40.877Z,11.78
2022-11-20T04:34:03.915Z,11.79
2022-11-20T04:34:25.608Z,11.81
2022-11-20T04:34:47.207Z,11.79
2022-11-20T04:35:10.022Z,11.80
2022-11-20T04:35:35.176Z,11.79
2022-11-20T04:36:01.480Z,11.81
2022-11-20T04:36:25.113Z,11.79
2022-11-20T04:36:47.707Z,11.78
2022-11-20T04:37:09.290Z,11.80
2022-11-20T04:37:30.930Z,11.75
2022-11-20T04:37:52.597Z,11.78
2022-11-20T04:38:14.204Z,11.74
2022-11-20T04:38:36.754Z,11.74
2022-11-20T04:39:00.266Z,11.73
2022-11-20T04:39:22.173Z,11.68
2022-11-20T04:39:44.072Z,11.75
2022-11-20T04:40:07.586Z,11.77
2022-11-20T04:40:31.774Z,11.75
2022-11-20T04:40:57.518Z,11.73
2022-11-20T04:41:20.669Z,11.77
2022-11-20T04:41:42.385Z,11.78
2022-11-20T04:42:22.703Z,11.80
2022-11-20T04:42:45.261Z,11.74
2022-11-20T04:43:06.881Z,11.79
2022-11-20T04:43:28.977Z,11.76
2022-11-20T04:43:52.121Z,11.77
2022-11-20T04:44:14.726Z,11.80
2022-11-20T04:44:36.365Z,11.80
2022-11-20T04:44:58.881Z,11.75
2022-11-20T04:45:20.545Z,11.75
2022-11-20T04:45:42.115Z,11.76
2022-11-20T04:46:04.664Z,11.76
2022-11-20T04:46:27.492Z,11.76
2022-11-20T04:46:49.043Z,11.74
2022-11-20T04:47:10.612Z,11.70
2022-11-20T04:47:33.199Z,11.72
2022-11-20T04:47:54.781Z,11.73
2022-11-20T04:48:16.356Z,11.73
2022-11-20T04:48:37.932Z,11.68
2022-11-20T04:49:00.181Z,11.68
2022-11-20T04:49:22.930Z,11.70
2022-11-20T04:49:44.633Z,11.72
2022-11-20T04:50:07.299Z,11.74
2022-11-20T04:50:28.894Z,11.76
2022-11-20T04:50:51.562Z,11.70
2022-11-20T04:51:13.450Z,11.70
2022-11-20T04:51:35.133Z,11.70
2022-11-20T04:51:56.707Z,11.70
2022-11-20T04:52:19.622Z,11.55
2022-11-20T04:52:41.308Z,11.55
2022-11-20T04:53:02.880Z,11.58
2022-11-20T04:53:25.333Z,11.57
2022-11-20T04:53:48.062Z,11.54
2022-11-20T04:54:12.096Z,11.54
2022-11-20T04:54:33.666Z,11.49
2022-11-20T04:54:56.311Z,11.44
2022-11-20T04:55:17.908Z,11.38
2022-11-20T04:55:40.807Z,11.43
2022-11-20T04:56:03.121Z,11.49
2022-11-20T04:56:25.893Z,11.50
2022-11-20T04:56:48.836Z,11.50
2022-11-20T04:57:14.412Z,11.47
2022-11-20T04:57:36.452Z,11.46